This is the latest recevied weather packets stored in our database for station/object CE3SUR-17. If no packets are shown the sender has not sent any weather packets the latest 10 day(s).
| Time | Temp. | Humidity | Pressure | Rain* | Wind** | Luminosity | Snow |
|---|---|---|---|---|---|---|---|
| 1777525117 | 23.33° C | 43% | 953.9 hPa | - | - | - | - |
| 1777523316 | 23.89° C | 43% | 954 hPa | - | - | - | - |
| 1777521517 | 24.44° C | 42% | 954.1 hPa | - | - | - | - |
| 1777519717 | 24.44° C | 42% | 954.2 hPa | - | - | - | - |
| 1777517917 | 25° C | 42% | 954.5 hPa | - | - | - | - |
| 1777516117 | 25.56° C | 42% | 954.6 hPa | - | - | - | - |
| 1777514317 | 25.56° C | 42% | 954.6 hPa | - | - | - | - |
| 1777512516 | 26.11° C | 42% | 954.8 hPa | - | - | - | - |
| 1777510716 | 26.67° C | 41% | 955 hPa | - | - | - | - |
| 1777508916 | 27.22° C | 41% | 955 hPa | - | - | - | - |
| 1777507116 | 27.78° C | 41% | 955 hPa | - | - | - | - |
| 1777505315 | 28.33° C | 40% | 955 hPa | - | - | - | - |
| 1777503515 | 28.89° C | 40% | 955 hPa | - | - | - | - |
| 1777501715 | 29.44° C | 40% | 954.8 hPa | - | - | - | - |
| 1777499919 | 30.56° C | 40% | 954.6 hPa | - | - | - | - |
| 1777498118 | 31.11° C | 39% | 954.7 hPa | - | - | - | - |
| 1777496318 | 32.22° C | 39% | 954.6 hPa | - | - | - | - |
| 1777495592 | 32.22° C | 39% | 954.7 hPa | - | - | - | - |
| 1777494529 | 32.22° C | 39% | 954.7 hPa | - | - | - | - |
| 1777492718 | 32.22° C | 40% | 954.9 hPa | - | - | - | - |
| 1777490917 | 32.22° C | 40% | 955 hPa | - | - | - | - |
| 1777489117 | 31.67° C | 40% | 955.3 hPa | - | - | - | - |
| 1777487316 | 31.11° C | 40% | 955.6 hPa | - | - | - | - |
| 1777485516 | 30.56° C | 40% | 956 hPa | - | - | - | - |
| 1777483716 | 30° C | 41% | 956.5 hPa | - | - | - | - |
* Rain since midnight (hover to see other rain measurements)
** Current wind speed in m/s (hover to see current wind gust speed)